Time;durP1;ratioP1;P1;durP2;ratioP2;P2;SDS_P1;SDS_P2;PMS_P1;PMS_P2;Temp;Humidity;BMP_temperature;BMP_pressure;BME280_temperature;BME280_humidity;BME280_pressure;Samples;Min_cycle;Max_cycle;Signal;HPM_P1;HPM_P2
2022/10/06 00:00:20;;;;;;;0.00;0.00;;;11.70;99.90;;;;;;5009796;28;20515;-78
2022/10/06 00:02:46;;;;;;;0.10;0.03;;;11.70;99.90;;;;;;5010303;28;20073;-80
2022/10/06 00:05:12;;;;;;;0.00;0.00;;;11.70;99.90;;;;;;5010498;28;20099;-77
2022/10/06 00:07:38;;;;;;;0.00;0.00;;;11.70;99.90;;;;;;5010132;28;20080;-80
2022/10/06 00:10:05;;;;;;;0.00;0.00;;;11.70;99.90;;;;;;5009905;28;20628;-78
2022/10/06 00:12:45;;;;;;;0.00;0.00;;;11.70;99.90;;;;;;5009589;28;20053;-78
2022/10/06 00:15:13;;;;;;;0.05;0.05;;;11.70;99.90;;;;;;5010461;28;20053;-77
2022/10/06 00:17:38;;;;;;;0.52;0.52;;;11.60;99.90;;;;;;5009676;28;20041;-79
2022/10/06 00:20:05;;;;;;;0.00;0.00;;;11.60;99.90;;;;;;5012729;28;20608;-78
2022/10/06 00:22:35;;;;;;;0.65;0.65;;;11.60;99.90;;;;;;5011917;28;20089;-80
2022/10/06 00:25:01;;;;;;;0.35;0.13;;;11.60;99.90;;;;;;5011135;28;20095;-78
2022/10/06 00:27:35;;;;;;;0.00;0.00;;;11.50;99.90;;;;;;5011127;28;20038;-78
2022/10/06 00:30:05;;;;;;;0.28;0.28;;;11.60;99.90;;;;;;5011506;28;20054;-81
2022/10/06 00:32:31;;;;;;;1.13;0.90;;;11.50;99.90;;;;;;5010844;28;20037;-80
2022/10/06 00:34:59;;;;;;;0.00;0.00;;;11.50;99.90;;;;;;5010928;28;20421;-77
2022/10/06 00:37:26;;;;;;;0.00;0.00;;;11.40;99.90;;;;;;5011297;28;20048;-79
2022/10/06 00:39:51;;;;;;;0.00;0.00;;;11.40;99.90;;;;;;5010816;28;20699;-80
2022/10/06 00:42:23;;;;;;;0.00;0.00;;;11.40;99.90;;;;;;5011451;28;20053;-79
2022/10/06 00:44:49;;;;;;;0.10;0.10;;;11.30;99.90;;;;;;5011433;28;20046;-80
2022/10/06 00:47:16;;;;;;;0.03;0.03;;;11.30;99.90;;;;;;4992527;28;20089;-80
2022/10/06 00:49:44;;;;;;;0.20;0.20;;;11.30;99.90;;;;;;4991109;28;20561;-78
2022/10/06 00:52:15;;;;;;;1.20;0.75;;;11.30;99.90;;;;;;4991538;28;20054;-80
2022/10/06 00:54:41;;;;;;;0.00;0.00;;;11.30;99.90;;;;;;4974891;28;20046;-77
2022/10/06 00:57:07;;;;;;;1.08;0.47;;;11.30;99.90;;;;;;4991627;28;20100;-77
2022/10/06 00:59:33;;;;;;;0.52;0.32;;;11.30;99.90;;;;;;4991386;28;20078;-77
2022/10/06 01:02:05;;;;;;;4.25;0.60;;;11.30;99.90;;;;;;4991830;28;20504;-78
2022/10/06 01:04:33;;;;;;;0.00;0.00;;;11.20;99.90;;;;;;4991316;28;20673;-78
2022/10/06 01:07:00;;;;;;;0.00;0.00;;;11.20;99.90;;;;;;4974144;28;20513;-80
2022/10/06 01:09:27;;;;;;;0.00;0.00;;;11.20;99.90;;;;;;4991399;28;20159;-78
2022/10/06 01:11:56;;;;;;;1.10;0.45;;;11.20;99.90;;;;;;4986626;28;20050;-80
2022/10/06 01:14:24;;;;;;;0.00;0.00;;;11.40;99.90;;;;;;4970177;28;20046;-77
2022/10/06 01:16:58;;;;;;;1.55;1.45;;;11.20;99.90;;;;;;4988487;28;20061;-80
2022/10/06 01:19:53;;;;;;;0.00;0.00;;;11.20;99.90;;;;;;4970487;28;20052;-81
2022/10/06 01:22:36;;;;;;;0.00;0.00;;;11.20;99.90;;;;;;4984586;28;20421;-78
2022/10/06 01:25:04;;;;;;;0.20;0.20;;;11.00;99.90;;;;;;4988126;28;20081;-78
2022/10/06 01:27:31;;;;;;;0.20;0.17;;;11.10;99.90;;;;;;4988331;28;20113;-78
2022/10/06 01:29:58;;;;;;;0.20;0.20;;;11.00;99.90;;;;;;4970399;28;20061;-77
2022/10/06 01:32:26;;;;;;;0.75;0.43;;;10.90;99.90;;;;;;4987349;28;20049;-80
2022/10/06 01:34:52;;;;;;;0.20;0.20;;;10.90;99.90;;;;;;4986740;28;20039;-78
2022/10/06 01:37:17;;;;;;;0.00;0.00;;;10.80;99.90;;;;;;4987254;28;20520;-78
2022/10/06 01:39:43;;;;;;;9.95;1.35;;;10.80;99.90;;;;;;4987182;28;20046;-79
2022/10/06 01:42:09;;;;;;;0.20;0.20;;;10.80;99.90;;;;;;4987674;28;20387;-77
2022/10/06 01:44:35;;;;;;;0.35;0.35;;;10.70;99.90;;;;;;4987073;28;20053;-80
2022/10/06 01:47:04;;;;;;;0.38;0.38;;;10.80;99.90;;;;;;4986088;28;20058;-78
2022/10/06 01:49:30;;;;;;;0.10;0.10;;;10.80;99.90;;;;;;4968960;28;20057;-78
2022/10/06 01:51:56;;;;;;;0.00;0.00;;;11.10;99.90;;;;;;4986912;28;20042;-79
2022/10/06 01:54:22;;;;;;;0.00;0.00;;;10.70;99.90;;;;;;4986912;28;20058;-79
2022/10/06 01:56:48;;;;;;;0.10;0.10;;;10.60;99.90;;;;;;4986972;28;20088;-79
2022/10/06 01:59:13;;;;;;;2.92;0.65;;;10.60;99.90;;;;;;4970113;28;20402;-78
2022/10/06 02:01:39;;;;;;;0.95;0.65;;;10.70;99.90;;;;;;4987159;28;20065;-78
2022/10/06 02:04:04;;;;;;;0.00;0.00;;;10.70;99.90;;;;;;4986468;28;20110;-79
2022/10/06 02:06:30;;;;;;;0.45;0.30;;;10.60;99.90;;;;;;4985681;28;20513;-80
2022/10/06 02:08:56;;;;;;;0.60;0.28;;;10.60;99.90;;;;;;4986083;28;20042;-78
2022/10/06 02:11:21;;;;;;;0.00;0.00;;;10.60;99.90;;;;;;4985583;28;20081;-78
2022/10/06 02:13:47;;;;;;;0.65;0.65;;;10.40;99.90;;;;;;4986041;28;20406;-79
2022/10/06 02:16:13;;;;;;;0.10;0.10;;;10.50;99.90;;;;;;4986345;28;20077;-78
2022/10/06 02:18:39;;;;;;;3.33;0.93;;;10.40;99.90;;;;;;4985858;28;20050;-79
2022/10/06 02:21:05;;;;;;;0.00;0.00;;;10.30;99.90;;;;;;4985773;28;20057;-78
2022/10/06 02:23:31;;;;;;;0.45;0.38;;;10.90;99.90;;;;;;4985409;28;20565;-80
2022/10/06 02:26:02;;;;;;;0.03;0.03;;;10.40;99.90;;;;;;4985747;28;20046;-80
2022/10/06 02:28:28;;;;;;;0.00;0.00;;;10.80;99.90;;;;;;4969032;28;20050;-79
2022/10/06 02:30:58;;;;;;;0.30;0.20;;;10.30;99.90;;;;;;4985961;28;20129;-80
2022/10/06 02:33:24;;;;;;;0.10;0.10;;;10.30;99.90;;;;;;4985911;28;20046;-78
2022/10/06 02:35:54;;;;;;;0.00;0.00;;;10.30;99.90;;;;;;4984940;28;20581;-78
2022/10/06 02:38:20;;;;;;;0.00;0.00;;;10.30;99.90;;;;;;4985516;28;20100;-79
2022/10/06 02:40:46;;;;;;;0.03;0.03;;;10.40;99.90;;;;;;4985416;28;20130;-77
2022/10/06 02:43:12;;;;;;;0.10;0.10;;;10.30;99.90;;;;;;4984715;28;20125;-78
2022/10/06 02:45:37;;;;;;;0.10;0.10;;;10.30;99.90;;;;;;4985362;28;20564;-80
2022/10/06 02:48:03;;;;;;;0.05;0.05;;;10.30;99.90;;;;;;4984457;28;20525;-78
2022/10/06 02:50:29;;;;;;;0.00;0.00;;;10.30;99.90;;;;;;4984738;28;20138;-77
2022/10/06 02:52:55;;;;;;;0.00;0.00;;;10.30;99.90;;;;;;4985101;28;20286;-78
2022/10/06 02:55:21;;;;;;;0.25;0.25;;;10.50;99.90;;;;;;4985037;28;20086;-77
2022/10/06 02:57:47;;;;;;;1.55;0.57;;;10.40;99.90;;;;;;4984955;28;20523;-78
2022/10/06 03:00:13;;;;;;;0.00;0.00;;;10.40;99.90;;;;;;4985075;28;20046;-78
2022/10/06 03:02:39;;;;;;;0.75;0.73;;;10.40;99.90;;;;;;4985561;28;20053;-77
2022/10/06 03:05:05;;;;;;;0.10;0.03;;;10.30;99.90;;;;;;4984844;28;20050;-79
2022/10/06 03:07:31;;;;;;;0.00;0.00;;;10.20;99.90;;;;;;4984353;28;20405;-78
2022/10/06 03:09:56;;;;;;;0.10;0.10;;;10.20;99.90;;;;;;4984583;28;20541;-79
2022/10/06 03:12:22;;;;;;;0.00;0.00;;;10.20;99.90;;;;;;4984477;28;20308;-77
2022/10/06 03:14:48;;;;;;;1.55;0.73;;;10.20;99.90;;;;;;4985170;28;20463;-79
2022/10/06 03:17:14;;;;;;;0.95;0.93;;;10.20;99.90;;;;;;4985327;28;20504;-78
2022/10/06 03:19:40;;;;;;;0.25;0.03;;;10.30;99.90;;;;;;4984246;28;20097;-80
2022/10/06 03:22:05;;;;;;;0.00;0.00;;;10.20;99.90;;;;;;4984872;28;20096;-77
2022/10/06 03:24:31;;;;;;;0.85;0.70;;;10.20;99.90;;;;;;4985362;28;20049;-78
2022/10/06 03:26:57;;;;;;;0.45;0.22;;;10.10;99.90;;;;;;4984866;28;20047;-78
2022/10/06 03:29:23;;;;;;;2.08;0.90;;;10.10;99.90;;;;;;4984950;28;20514;-78
2022/10/06 03:31:48;;;;;;;0.03;0.03;;;10.10;99.90;;;;;;4984543;28;20573;-79
2022/10/06 03:34:14;;;;;;;0.00;0.00;;;10.00;99.90;;;;;;4984113;28;20047;-78
2022/10/06 03:36:40;;;;;;;0.00;0.00;;;10.00;99.90;;;;;;4985186;28;20049;-78
2022/10/06 03:39:07;;;;;;;0.17;0.17;;;10.00;99.90;;;;;;4985027;28;20638;-77
2022/10/06 03:41:35;;;;;;;0.10;0.10;;;10.00;99.90;;;;;;4984762;28;20078;-78
2022/10/06 03:44:04;;;;;;;0.00;0.00;;;10.00;99.90;;;;;;4983874;28;20493;-77
2022/10/06 03:46:32;;;;;;;0.38;0.38;;;9.90;99.90;;;;;;4983925;28;20054;-78
2022/10/06 03:48:59;;;;;;;18.77;3.03;;;9.90;99.90;;;;;;4984301;28;20050;-80
2022/10/06 03:51:30;;;;;;;0.00;0.00;;;9.90;99.90;;;;;;4983989;28;20050;-77
2022/10/06 03:53:57;;;;;;;0.10;0.00;;;9.90;99.90;;;;;;4965953;28;20109;-79
2022/10/06 03:56:31;;;;;;;0.00;0.00;;;9.80;99.90;;;;;;4965935;28;20101;-79
2022/10/06 03:59:03;;;;;;;0.15;0.15;;;9.80;99.90;;;;;;4983740;28;20060;-79
2022/10/06 04:01:34;;;;;;;0.00;0.00;;;9.80;99.90;;;;;;4983550;28;20074;-78
2022/10/06 04:04:00;;;;;;;0.40;0.30;;;9.90;99.90;;;;;;4984092;28;20371;-77
2022/10/06 04:06:27;;;;;;;11.60;0.35;;;9.80;99.90;;;;;;4983977;28;20523;-77
2022/10/06 04:08:53;;;;;;;0.00;0.00;;;9.90;99.90;;;;;;4983606;28;20062;-78
2022/10/06 04:11:25;;;;;;;0.20;0.15;;;9.80;99.90;;;;;;4983353;28;20457;-77
2022/10/06 04:13:57;;;;;;;0.00;0.00;;;9.80;99.90;;;;;;4983592;28;20050;-77
2022/10/06 04:16:35;;;;;;;0.00;0.00;;;9.80;99.90;;;;;;4984228;28;20148;-78
2022/10/06 04:19:03;;;;;;;0.03;0.03;;;9.80;99.90;;;;;;4983838;28;20054;-77
2022/10/06 04:21:31;;;;;;;0.15;0.15;;;9.80;99.90;;;;;;4983636;28;20050;-79
2022/10/06 04:23:58;;;;;;;0.00;0.00;;;9.80;99.90;;;;;;4983525;28;20042;-79
2022/10/06 04:26:26;;;;;;;0.03;0.03;;;9.80;99.90;;;;;;4983266;28;20042;-79
2022/10/06 04:28:53;;;;;;;0.00;0.00;;;9.70;99.90;;;;;;4983367;28;20501;-78
2022/10/06 04:31:21;;;;;;;0.00;0.00;;;9.70;99.90;;;;;;4947229;28;20066;-77
2022/10/06 04:33:50;;;;;;;2.50;0.30;;;9.60;99.90;;;;;;4969940;28;20126;-77
2022/10/06 04:36:22;;;;;;;0.00;0.00;;;9.50;99.90;;;;;;4983222;28;20502;-77
2022/10/06 04:38:57;;;;;;;0.00;0.00;;;9.50;99.90;;;;;;4983105;28;20461;-78
2022/10/06 04:41:25;;;;;;;0.00;0.00;;;9.60;99.90;;;;;;4983919;28;20501;-76
2022/10/06 04:43:51;;;;;;;0.75;0.75;;;9.50;99.90;;;;;;4985399;28;20085;-77
2022/10/06 04:46:18;;;;;;;1.90;1.08;;;9.50;99.90;;;;;;4987303;28;20482;-77
2022/10/06 04:48:43;;;;;;;1.08;0.43;;;9.50;99.90;;;;;;4986104;28;20470;-79
2022/10/06 04:51:15;;;;;;;0.08;0.08;;;9.40;99.90;;;;;;4985819;28;20117;-77
2022/10/06 04:53:45;;;;;;;0.00;0.00;;;9.40;99.90;;;;;;4985929;28;20082;-78
2022/10/06 04:56:15;;;;;;;0.70;0.30;;;9.40;99.90;;;;;;4985581;28;20085;-78
2022/10/06 04:58:43;;;;;;;2.55;1.10;;;9.40;99.90;;;;;;4985831;28;20042;-77
2022/10/06 05:01:22;;;;;;;0.08;0.08;;;9.30;99.90;;;;;;4985852;28;20110;-77
2022/10/06 05:03:51;;;;;;;4.00;1.10;;;9.20;99.90;;;;;;4985368;28;20073;-77
2022/10/06 05:06:25;;;;;;;0.35;0.35;;;9.30;99.90;;;;;;4964341;28;20573;-79
2022/10/06 05:08:53;;;;;;;0.75;0.47;;;9.30;99.90;;;;;;4964259;28;20476;-76
2022/10/06 05:11:19;;;;;;;0.35;0.30;;;9.20;99.90;;;;;;4983045;28;20097;-76
2022/10/06 05:13:45;;;;;;;0.98;0.60;;;9.30;99.90;;;;;;4984323;28;20390;-77
2022/10/06 05:16:15;;;;;;;2.20;1.65;;;9.30;99.90;;;;;;4983909;28;20057;-76
2022/10/06 05:18:42;;;;;;;0.00;0.00;;;9.30;99.90;;;;;;4984188;28;20077;-78
2022/10/06 05:21:12;;;;;;;0.40;0.40;;;9.30;99.90;;;;;;4983278;28;20525;-77
2022/10/06 05:23:39;;;;;;;0.20;0.20;;;9.30;99.90;;;;;;4983254;28;20054;-77
2022/10/06 05:26:06;;;;;;;0.98;0.77;;;9.40;99.90;;;;;;4983077;28;20054;-76
2022/10/06 05:28:33;;;;;;;0.00;0.00;;;9.30;99.90;;;;;;4983864;28;20409;-78
2022/10/06 05:31:15;;;;;;;0.00;0.00;;;9.40;99.90;;;;;;4968046;28;20046;-79
2022/10/06 05:33:41;;;;;;;0.17;0.05;;;9.40;99.90;;;;;;4985453;28;20058;-78
2022/10/06 05:36:13;;;;;;;0.00;0.00;;;9.40;99.90;;;;;;4985576;28;20065;-75
2022/10/06 05:38:39;;;;;;;0.00;0.00;;;9.40;99.90;;;;;;4984740;28;20104;-76
2022/10/06 05:41:29;;;;;;;0.05;0.05;;;9.40;99.90;;;;;;4984402;28;20046;-76
2022/10/06 05:43:55;;;;;;;0.00;0.00;;;9.50;99.90;;;;;;4985249;28;20054;-79
2022/10/06 05:46:24;;;;;;;0.70;0.40;;;9.50;99.90;;;;;;4985847;28;20046;-76
2022/10/06 05:48:53;;;;;;;0.00;0.00;;;9.50;99.90;;;;;;4985140;28;20524;-77
2022/10/06 05:51:20;;;;;;;0.03;0.03;;;9.50;99.90;;;;;;4985668;28;20038;-78
2022/10/06 05:53:47;;;;;;;0.65;0.65;;;9.50;99.90;;;;;;4985175;28;20051;-79
2022/10/06 05:56:14;;;;;;;0.10;0.10;;;9.60;99.90;;;;;;4985003;28;20066;-77
2022/10/06 05:58:41;;;;;;;0.00;0.00;;;9.60;99.90;;;;;;4985460;28;20506;-77
2022/10/06 06:01:10;;;;;;;1.75;0.25;;;9.70;99.90;;;;;;4985490;28;20046;-78
2022/10/06 06:03:37;;;;;;;4.95;1.08;;;9.70;99.90;;;;;;4984644;28;20137;-79
2022/10/06 06:06:10;;;;;;;0.13;0.13;;;9.70;99.90;;;;;;4985135;28;20138;-80
2022/10/06 06:08:36;;;;;;;0.00;0.00;;;9.70;99.90;;;;;;4968120;28;20061;-79
2022/10/06 06:11:09;;;;;;;0.00;0.00;;;9.80;99.90;;;;;;4985291;28;20050;-79
2022/10/06 06:13:35;;;;;;;1.17;0.85;;;9.80;99.90;;;;;;4985320;28;20380;-77
2022/10/06 06:16:05;;;;;;;0.00;0.00;;;9.80;99.90;;;;;;4985695;28;20129;-76
2022/10/06 06:18:32;;;;;;;0.05;0.05;;;9.80;99.90;;;;;;4984843;28;20050;-76
2022/10/06 06:21:05;;;;;;;11.40;3.03;;;9.90;99.90;;;;;;4985591;28;20050;-76
2022/10/06 06:23:36;;;;;;;2.45;1.17;;;10.00;99.90;;;;;;4985034;28;20177;-77
2022/10/06 06:26:06;;;;;;;0.05;0.05;;;10.20;99.90;;;;;;4984813;28;20112;-78
2022/10/06 06:28:34;;;;;;;0.00;0.00;;;10.30;99.90;;;;;;4984715;28;20073;-78
2022/10/06 06:31:36;;;;;;;0.32;0.20;;;10.30;99.90;;;;;;4985080;28;20104;-77
2022/10/06 06:34:06;;;;;;;1.45;0.70;;;10.40;99.90;;;;;;4964497;28;20062;-77
2022/10/06 06:36:40;;;;;;;5.25;1.10;;;10.40;99.90;;;;;;4985690;28;20049;-76
2022/10/06 06:39:08;;;;;;;0.10;0.10;;;10.40;99.90;;;;;;4984832;28;20046;-77
2022/10/06 06:41:40;;;;;;;0.00;0.00;;;10.40;99.90;;;;;;4985230;28;20046;-76
2022/10/06 06:44:13;;;;;;;0.98;0.77;;;10.40;99.90;;;;;;4985495;28;20038;-77
2022/10/06 06:46:41;;;;;;;0.38;0.38;;;10.50;99.90;;;;;;4985214;28;20054;-76
2022/10/06 06:49:08;;;;;;;2.95;0.43;;;10.60;99.90;;;;;;4984923;28;21056;-77
2022/10/06 06:51:39;;;;;;;0.08;0.08;;;10.60;99.90;;;;;;4985315;28;20093;-76
2022/10/06 06:54:05;;;;;;;0.35;0.30;;;10.60;99.90;;;;;;4984722;28;20081;-76
2022/10/06 06:56:35;;;;;;;0.90;0.63;;;10.70;99.90;;;;;;4984994;28;20509;-79
2022/10/06 06:59:02;;;;;;;0.20;0.20;;;10.70;99.90;;;;;;4984846;28;20046;-76
2022/10/06 07:01:27;;;;;;;14.80;0.55;;;10.80;99.90;;;;;;4984837;28;20133;-78
2022/10/06 07:03:55;;;;;;;0.15;0.15;;;10.80;99.90;;;;;;4985719;28;20125;-78
2022/10/06 07:06:22;;;;;;;0.47;0.22;;;10.90;99.90;;;;;;4985390;28;20423;-77
2022/10/06 07:08:48;;;;;;;0.00;0.00;;;10.90;99.90;;;;;;4984268;28;20046;-78
2022/10/06 07:11:20;;;;;;;0.20;0.20;;;11.00;99.90;;;;;;4985604;28;20038;-78
2022/10/06 07:13:50;;;;;;;1.40;0.35;;;11.00;99.90;;;;;;4985912;28;20054;-76
2022/10/06 07:25:06;;;;;;;0.40;0.30;;;11.20;99.90;;;;;;4986647;28;20054;-77
2022/10/06 07:27:37;;;;;;;2.83;0.30;;;11.20;99.90;;;;;;4985056;28;20082;-77
2022/10/06 07:30:04;;;;;;;0.00;0.00;;;11.30;99.90;;;;;;4984697;28;20054;-76
2022/10/06 07:32:30;;;;;;;0.00;0.00;;;11.30;99.90;;;;;;4985723;28;20445;-77
2022/10/06 07:34:57;;;;;;;0.00;0.00;;;11.30;99.90;;;;;;4986043;28;20086;-77
2022/10/06 07:37:24;;;;;;;0.00;0.00;;;11.30;99.90;;;;;;4984915;28;20058;-77
2022/10/06 07:39:49;;;;;;;0.00;0.00;;;11.40;99.90;;;;;;4984717;28;20050;-76
2022/10/06 07:42:16;;;;;;;0.00;0.00;;;11.40;99.90;;;;;;4984927;28;20105;-77
2022/10/06 07:44:43;;;;;;;0.30;0.20;;;11.40;99.90;;;;;;4985053;28;20202;-77
2022/10/06 07:47:09;;;;;;;0.20;0.15;;;11.60;99.90;;;;;;4982327;28;20058;-77
2022/10/06 07:49:34;;;;;;;0.00;0.00;;;11.60;99.90;;;;;;4984033;28;20050;-78
2022/10/06 07:52:01;;;;;;;2.05;0.70;;;11.60;99.90;;;;;;4985073;28;20505;-76
2022/10/06 07:54:27;;;;;;;0.15;0.15;;;11.70;99.90;;;;;;4984139;28;20054;-77
2022/10/06 07:56:53;;;;;;;0.10;0.10;;;11.70;99.90;;;;;;4985168;28;20592;-78
2022/10/06 07:59:20;;;;;;;14.25;0.80;;;11.70;99.90;;;;;;4984547;28;20053;-78
2022/10/06 08:01:46;;;;;;;5.75;1.38;;;11.80;49.40;;;;;;4984440;28;20046;-77
2022/10/06 08:04:12;;;;;;;5.25;1.10;;;11.90;72.60;;;;;;4984768;28;20074;-78
2022/10/06 08:06:38;;;;;;;0.00;0.00;;;11.90;85.40;;;;;;4984560;28;20089;-78
2022/10/06 08:09:04;;;;;;;0.00;0.00;;;12.00;62.00;;;;;;4983879;28;20051;-77
2022/10/06 08:11:31;;;;;;;0.70;0.70;;;12.00;83.10;;;;;;4984615;28;20065;-78
2022/10/06 08:13:57;;;;;;;2.38;1.25;;;12.10;23.40;;;;;;4985082;28;20409;-77
2022/10/06 08:16:28;;;;;;;0.25;0.22;;;12.20;27.60;;;;;;4984179;28;20038;-77
2022/10/06 08:19:00;;;;;;;3.72;1.27;;;12.30;12.20;;;;;;4985118;28;20726;-79
2022/10/06 08:21:29;;;;;;;0.47;0.47;;;12.40;1.10;;;;;;4987660;28;20050;-77
2022/10/06 08:23:57;;;;;;;2.65;0.40;;;12.40;1.00;;;;;;4989843;28;20042;-78
2022/10/06 08:26:24;;;;;;;0.08;0.05;;;12.50;1.00;;;;;;4990611;28;20047;-76
2022/10/06 08:28:52;;;;;;;0.35;0.35;;;12.50;1.00;;;;;;4990406;28;20679;-77
2022/10/06 08:31:20;;;;;;;0.00;0.00;;;12.60;1.00;;;;;;4988795;28;20069;-77
2022/10/06 08:33:47;;;;;;;0.52;0.40;;;12.70;1.00;;;;;;4988760;28;20125;-76
2022/10/06 08:36:18;;;;;;;0.00;0.00;;;12.80;1.00;;;;;;4989273;28;20053;-78
2022/10/06 08:38:49;;;;;;;8.68;1.52;;;12.90;1.00;;;;;;4989977;28;20046;-77
2022/10/06 08:41:28;;;;;;;0.52;0.35;;;13.80;99.90;;;;;;4990019;28;20057;-77
2022/10/06 08:43:59;;;;;;;2.30;1.17;;;13.00;99.90;;;;;;4989208;28;20053;-77
2022/10/06 08:46:40;;;;;;;0.63;0.63;;;13.10;99.90;;;;;;4989712;28;20383;-77
2022/10/06 08:49:14;;;;;;;0.93;0.63;;;13.20;99.90;;;;;;4989905;28;20057;-78
2022/10/06 08:52:09;;;;;;;2.92;1.15;;;13.30;99.90;;;;;;4990420;28;20050;-77
2022/10/06 08:55:05;;;;;;;1.35;0.10;;;13.40;99.90;;;;;;4971790;28;20054;-79
2022/10/06 08:57:35;;;;;;;7.78;2.05;;;13.50;98.90;;;;;;4982730;28;20115;-78
2022/10/06 09:00:02;;;;;;;0.25;0.25;;;13.70;1.00;;;;;;4970961;28;20110;-77
2022/10/06 09:02:40;;;;;;;0.15;0.15;;;13.80;99.90;;;;;;4971398;28;20047;-77
2022/10/06 09:05:07;;;;;;;0.05;0.05;;;13.80;1.00;;;;;;4970967;28;20046;-77
2022/10/06 09:07:58;;;;;;;0.45;0.45;;;13.90;99.90;;;;;;4955273;28;20090;-77
2022/10/06 09:10:38;;;;;;;0.00;0.00;;;14.00;99.90;;;;;;4973337;28;20532;-78
2022/10/06 09:13:19;;;;;;;0.05;0.05;;;14.20;1.00;;;;;;4984635;28;20043;-77
2022/10/06 09:15:49;;;;;;;0.35;0.25;;;14.30;99.90;;;;;;4989732;28;20056;-77
2022/10/06 09:18:21;;;;;;;0.00;0.00;;;14.30;99.90;;;;;;4977004;28;20572;-78
2022/10/06 09:21:08;;;;;;;1.23;0.35;;;14.30;1.00;;;;;;4995731;28;20053;-79
2022/10/06 09:23:47;;;;;;;0.00;0.00;;;14.30;99.90;;;;;;4995468;28;20056;-78
2022/10/06 09:26:27;;;;;;;0.00;0.00;;;14.50;93.60;;;;;;5001702;23;20148;-79
2022/10/06 09:28:53;;;;;;;0.00;0.00;;;14.60;1.00;;;;;;4955077;28;20043;-77
2022/10/06 09:31:30;;;;;;;0.20;0.20;;;14.70;1.00;;;;;;4945529;29;20059;-77
2022/10/06 09:34:18;;;;;;;0.00;0.00;;;14.80;1.00;;;;;;4935469;29;20080;-78
2022/10/06 09:36:59;;;;;;;0.10;0.10;;;14.90;99.90;;;;;;4950881;29;20047;-77
2022/10/06 09:39:25;;;;;;;0.10;0.10;;;14.90;1.00;;;;;;4955145;28;20051;-78
2022/10/06 09:41:53;;;;;;;0.45;0.30;;;15.10;1.00;;;;;;4952703;29;20040;-78
2022/10/06 09:44:59;;;;;;;0.00;0.00;;;15.20;99.90;;;;;;4952423;29;20051;-78
2022/10/06 09:47:27;;;;;;;0.00;0.00;;;15.40;99.90;;;;;;4919073;29;20107;-78
2022/10/06 09:50:11;;;;;;;0.85;0.22;;;15.50;99.90;;;;;;4936293;29;20090;-77
2022/10/06 09:53:04;;;;;;;0.30;0.30;;;16.10;99.90;;;;;;4935394;29;20466;-78
2022/10/06 09:55:38;;;;;;;0.13;0.13;;;16.10;99.90;;;;;;4933708;29;20507;-78
2022/10/06 09:58:24;;;;;;;0.00;0.00;;;16.30;99.90;;;;;;4948771;28;20051;-77
2022/10/06 10:00:58;;;;;;;0.32;0.10;;;16.30;80.90;;;;;;4964412;28;20042;-76
2022/10/06 10:03:25;;;;;;;6.63;1.58;;;16.40;52.90;;;;;;4939756;29;20487;-78
2022/10/06 10:05:55;;;;;;;0.20;0.10;;;16.40;58.00;;;;;;4937407;29;20088;-79
2022/10/06 10:08:27;;;;;;;0.10;0.10;;;16.40;15.90;;;;;;4942324;29;20062;-77
2022/10/06 10:14:15;;;;;;;0.10;0.08;;;16.60;1.00;;;;;;4939632;29;20063;-76
2022/10/06 10:16:41;;;;;;;0.08;0.05;;;16.80;1.00;;;;;;4962148;28;20046;-76
2022/10/06 10:19:26;;;;;;;0.00;0.00;;;17.00;99.90;;;;;;4974891;28;20047;-78
2022/10/06 10:21:55;;;;;;;0.25;0.25;;;17.10;99.90;;;;;;4974474;28;20030;-77
2022/10/06 10:24:41;;;;;;;0.00;0.00;;;17.30;99.90;;;;;;4964087;28;20062;-77
2022/10/06 10:27:24;;;;;;;0.00;0.00;;;17.20;99.90;;;;;;4941474;29;20051;-77
2022/10/06 10:30:08;;;;;;;0.00;0.00;;;17.10;99.90;;;;;;4956886;29;20043;-78
2022/10/06 10:32:50;;;;;;;0.25;0.25;;;17.20;99.90;;;;;;4957364;28;20441;-78
2022/10/06 10:35:33;;;;;;;0.00;0.00;;;17.20;99.90;;;;;;4964849;28;20089;-78
2022/10/06 10:38:25;;;;;;;0.45;0.45;;;17.30;99.90;;;;;;4950534;28;20522;-76
2022/10/06 10:40:58;;;;;;;2.80;0.47;;;17.40;99.90;;;;;;4967848;28;20150;-77
2022/10/06 10:43:51;;;;;;;0.45;0.40;;;17.50;99.90;;;;;;4964290;28;20050;-77
2022/10/06 10:46:37;;;;;;;0.40;0.30;;;17.60;99.90;;;;;;4951854;29;20098;-78
2022/10/06 10:49:29;;;;;;;0.28;0.25;;;17.60;99.90;;;;;;4951630;29;20070;-77
2022/10/06 10:52:14;;;;;;;0.08;0.08;;;17.70;59.00;;;;;;4946329;29;20065;-78
2022/10/06 10:55:01;;;;;;;0.20;0.20;;;17.70;39.30;;;;;;4952485;29;20058;-77
2022/10/06 10:57:35;;;;;;;0.00;0.00;;;17.60;1.00;;;;;;4952546;29;20051;-78
2022/10/06 11:00:07;;;;;;;0.10;0.08;;;17.40;75.60;;;;;;4957050;28;20046;-76
2022/10/06 11:02:39;;;;;;;0.13;0.10;;;17.60;99.90;;;;;;4971881;28;20051;-77
2022/10/06 11:05:21;;;;;;;0.30;0.20;;;17.60;1.00;;;;;;4970510;28;20051;-76
2022/10/06 11:07:57;;;;;;;2.92;0.60;;;17.50;22.90;;;;;;4971255;28;20051;-77
2022/10/06 11:10:49;;;;;;;0.32;0.32;;;17.40;28.60;;;;;;4970436;28;20051;-76
2022/10/06 11:13:21;;;;;;;0.00;0.00;;;17.50;28.70;;;;;;4965332;28;20411;-77
2022/10/06 11:16:25;;;;;;;1.35;0.80;;;18.00;30.30;;;;;;4969352;28;20129;-76
2022/10/06 11:18:59;;;;;;;0.43;0.32;;;18.20;1.00;;;;;;4951253;28;20498;-76
2022/10/06 11:21:54;;;;;;;0.53;0.50;;;18.30;1.00;;;;;;4970944;28;20084;-78
2022/10/06 11:24:49;;;;;;;0.45;0.40;;;18.30;1.00;;;;;;4969916;28;20051;-77
2022/10/06 11:27:57;;;;;;;0.85;0.60;;;18.00;1.00;;;;;;4980474;28;20058;-76
2022/10/06 11:30:26;;;;;;;0.10;0.10;;;18.20;1.00;;;;;;4958400;28;20051;-79
2022/10/06 11:33:10;;;;;;;0.00;0.00;;;18.50;1.00;;;;;;4989457;28;20140;-78
2022/10/06 11:35:40;;;;;;;0.20;0.20;;;18.70;99.90;;;;;;4990062;28;20050;-78
2022/10/06 11:38:28;;;;;;;0.17;0.10;;;18.70;1.00;;;;;;4987980;28;20458;-77
2022/10/06 11:41:07;;;;;;;0.45;0.40;;;18.30;99.90;;;;;;4988722;28;20442;-78
2022/10/06 11:44:04;;;;;;;0.00;0.00;;;17.70;1.00;;;;;;4990680;28;20046;-77
2022/10/06 11:46:37;;;;;;;;;;;17.70;1.00;;;;;;4990011;28;20046;-77
2022/10/06 11:49:29;;;;;;;1.70;0.45;;;18.00;1.00;;;;;;4988166;28;19925;-76
2022/10/06 11:52:10;;;;;;;2.58;0.55;;;18.30;99.90;;;;;;4987965;28;20069;-78
2022/10/06 11:54:38;;;;;;;1.67;0.25;;;18.60;99.90;;;;;;4986901;28;20054;-76
2022/10/06 11:57:23;;;;;;;0.00;0.00;;;18.80;99.90;;;;;;4986984;28;20422;-76
2022/10/06 11:59:54;;;;;;;0.30;0.30;;;19.10;99.90;;;;;;4983763;28;20050;-78
2022/10/06 12:02:31;;;;;;;1.27;0.68;;;19.00;99.90;;;;;;4969280;28;20043;-77
2022/10/06 12:05:13;;;;;;;0.00;0.00;;;19.00;99.90;;;;;;4949200;29;20440;-77
2022/10/06 12:07:56;;;;;;;0.00;0.00;;;19.00;99.90;;;;;;4949462;29;20571;-78
2022/10/06 12:10:28;;;;;;;2.20;0.50;;;18.90;99.90;;;;;;4950414;28;20051;-76
2022/10/06 12:12:57;;;;;;;0.38;0.32;;;18.90;99.90;;;;;;4965901;28;20114;-76
2022/10/06 12:15:46;;;;;;;0.80;0.28;;;19.00;99.90;;;;;;4967033;28;20438;-77
2022/10/06 12:18:48;;;;;;;0.15;0.15;;;19.30;99.90;;;;;;4958969;28;20057;-77
2022/10/06 12:21:49;;;;;;;0.10;0.10;;;19.30;99.90;;;;;;4966103;28;20090;-77
2022/10/06 12:24:50;;;;;;;0.20;0.10;;;19.20;99.90;;;;;;4966344;28;20045;-77
2022/10/06 12:27:25;;;;;;;0.57;0.43;;;19.40;97.50;;;;;;4965925;28;20078;-76
2022/10/06 12:30:23;;;;;;;0.13;0.13;;;19.30;66.10;;;;;;4966897;28;20074;-77
2022/10/06 12:32:54;;;;;;;3.60;0.57;;;19.20;3.70;;;;;;4968330;28;20047;-78
2022/10/06 12:35:41;;;;;;;0.38;0.30;;;19.10;15.70;;;;;;4968522;28;20075;-77
2022/10/06 12:38:32;;;;;;;0.10;0.05;;;19.10;1.00;;;;;;4969927;28;20085;-76
2022/10/06 12:40:58;;;;;;;0.00;0.00;;;19.00;23.30;;;;;;4969824;28;20054;-78
2022/10/06 12:43:32;;;;;;;0.20;0.08;;;19.10;2.80;;;;;;4972076;28;20043;-78
2022/10/06 12:46:17;;;;;;;0.45;0.20;;;19.30;14.30;;;;;;4969685;28;20051;-77
2022/10/06 12:49:01;;;;;;;0.00;0.00;;;19.40;1.00;;;;;;4969750;28;20054;-78
2022/10/06 12:51:42;;;;;;;0.00;0.00;;;19.30;1.00;;;;;;4971473;28;20053;-77
2022/10/06 12:54:09;;;;;;;0.00;0.00;;;19.30;1.00;;;;;;4970362;28;20047;-78
2022/10/06 12:56:40;;;;;;;0.32;0.22;;;19.50;1.00;;;;;;4969230;28;20059;-76
2022/10/06 12:59:30;;;;;;;0.00;0.00;;;19.50;1.00;;;;;;4972031;28;20463;-77
2022/10/06 13:02:24;;;;;;;0.00;0.00;;;19.70;1.00;;;;;;4969192;28;20062;-77
2022/10/06 13:05:08;;;;;;;1.10;0.25;;;19.70;1.00;;;;;;4967803;28;20101;-75
2022/10/06 13:08:18;;;;;;;0.10;0.10;;;19.70;1.00;;;;;;4971204;28;20058;-77
2022/10/06 13:10:44;;;;;;;0.00;0.00;;;19.50;1.00;;;;;;4972143;28;20129;-77
2022/10/06 13:13:23;;;;;;;0.65;0.52;;;19.60;1.00;;;;;;4971640;28;20126;-76
2022/10/06 13:15:54;;;;;;;0.00;0.00;;;19.50;1.00;;;;;;4971252;28;20564;-78
2022/10/06 13:18:22;;;;;;;0.15;0.15;;;19.60;1.00;;;;;;4971752;28;20121;-75
2022/10/06 13:20:50;;;;;;;0.08;0.08;;;19.70;1.00;;;;;;4971235;28;20502;-79
2022/10/06 13:23:26;;;;;;;0.52;0.40;;;19.80;1.00;;;;;;4954934;28;20130;-75
2022/10/06 13:25:58;;;;;;;;;;;19.90;1.00;;;;;;4972180;28;20058;-76
2022/10/06 13:28:29;;;;;;;0.13;0.10;;;20.20;1.00;;;;;;4971069;28;19933;-78